sensor_id;sensor_type;location;lat;lon;timestamp;pressure;altitude;pressure_sealevel;temperature;humidity
73455;BME280;61690;51.824;6.306;2022-11-11T00:01:14;102724.25;;;19.90;52.05
73455;BME280;61690;51.824;6.306;2022-11-11T00:03:40;102723.34;;;19.91;52.10
73455;BME280;61690;51.824;6.306;2022-11-11T00:06:09;102725.38;;;19.84;51.84
73455;BME280;61690;51.824;6.306;2022-11-11T00:08:35;102729.88;;;20.03;51.34
73455;BME280;61690;51.824;6.306;2022-11-11T00:11:05;102731.81;;;19.77;52.24
73455;BME280;61690;51.824;6.306;2022-11-11T00:13:32;102732.00;;;19.94;51.69
73455;BME280;61690;51.824;6.306;2022-11-11T00:16:23;102735.63;;;19.70;52.33
73455;BME280;61690;51.824;6.306;2022-11-11T00:18:49;102735.56;;;19.71;52.27
73455;BME280;61690;51.824;6.306;2022-11-11T00:21:32;102737.28;;;19.72;52.27
73455;BME280;61690;51.824;6.306;2022-11-11T00:24:01;102740.78;;;19.73;52.46
73455;BME280;61690;51.824;6.306;2022-11-11T00:26:45;102739.50;;;19.83;52.16
73455;BME280;61690;51.824;6.306;2022-11-11T00:29:10;102742.56;;;19.94;51.89
73455;BME280;61690;51.824;6.306;2022-11-11T00:31:36;102751.13;;;20.00;51.59
73455;BME280;61690;51.824;6.306;2022-11-11T00:34:21;102752.41;;;19.91;51.90
73455;BME280;61690;51.824;6.306;2022-11-11T00:36:46;102746.69;;;19.80;52.10
73455;BME280;61690;51.824;6.306;2022-11-11T00:39:12;102748.88;;;19.68;52.45
73455;BME280;61690;51.824;6.306;2022-11-11T00:41:37;102757.19;;;19.81;52.18
73455;BME280;61690;51.824;6.306;2022-11-11T00:44:02;102760.31;;;19.91;51.87
73455;BME280;61690;51.824;6.306;2022-11-11T00:46:28;102760.38;;;19.89;51.96
73455;BME280;61690;51.824;6.306;2022-11-11T00:49:11;102761.91;;;19.73;52.10
73455;BME280;61690;51.824;6.306;2022-11-11T00:51:55;102763.38;;;19.80;52.05
73455;BME280;61690;51.824;6.306;2022-11-11T00:54:20;102754.00;;;19.73;52.05
73455;BME280;61690;51.824;6.306;2022-11-11T00:56:46;102764.91;;;19.64;52.27
73455;BME280;61690;51.824;6.306;2022-11-11T00:59:11;102762.72;;;19.75;52.26
73455;BME280;61690;51.824;6.306;2022-11-11T01:01:37;102769.88;;;19.71;52.17
73455;BME280;61690;51.824;6.306;2022-11-11T01:04:03;102763.66;;;19.74;51.81
73455;BME280;61690;51.824;6.306;2022-11-11T01:06:28;102767.47;;;19.65;52.33
73455;BME280;61690;51.824;6.306;2022-11-11T01:08:53;102771.66;;;19.71;52.25
73455;BME280;61690;51.824;6.306;2022-11-11T01:11:21;102774.63;;;19.85;51.85
73455;BME280;61690;51.824;6.306;2022-11-11T01:13:47;102776.72;;;19.77;51.70
73455;BME280;61690;51.824;6.306;2022-11-11T01:16:16;102772.84;;;19.64;52.09
73455;BME280;61690;51.824;6.306;2022-11-11T01:18:42;102772.94;;;19.61;52.45
73455;BME280;61690;51.824;6.306;2022-11-11T01:21:09;102767.41;;;19.67;52.62
73455;BME280;61690;51.824;6.306;2022-11-11T01:23:37;102773.50;;;19.69;52.04
73455;BME280;61690;51.824;6.306;2022-11-11T01:26:19;102767.13;;;19.74;51.95
73455;BME280;61690;51.824;6.306;2022-11-11T01:28:48;102769.34;;;19.85;51.47
73455;BME280;61690;51.824;6.306;2022-11-11T01:31:14;102769.06;;;19.69;52.15
73455;BME280;61690;51.824;6.306;2022-11-11T01:33:40;102768.41;;;19.64;51.95
73455;BME280;61690;51.824;6.306;2022-11-11T01:36:11;102769.78;;;19.74;51.90
73455;BME280;61690;51.824;6.306;2022-11-11T01:38:37;102754.09;;;19.70;52.25
73455;BME280;61690;51.824;6.306;2022-11-11T01:41:03;102751.03;;;19.58;52.28
73455;BME280;61690;51.824;6.306;2022-11-11T01:43:49;102753.47;;;19.63;52.38
73455;BME280;61690;51.824;6.306;2022-11-11T01:46:25;102755.34;;;19.83;51.68
73455;BME280;61690;51.824;6.306;2022-11-11T01:48:55;102754.78;;;19.75;51.77
73455;BME280;61690;51.824;6.306;2022-11-11T01:54:26;102756.84;;;19.67;52.09
73455;BME280;61690;51.824;6.306;2022-11-11T02:00:05;102761.34;;;19.65;52.28
73455;BME280;61690;51.824;6.306;2022-11-11T02:02:46;102756.00;;;19.66;52.10
73455;BME280;61690;51.824;6.306;2022-11-11T02:05:14;102770.31;;;19.61;52.10
73455;BME280;61690;51.824;6.306;2022-11-11T02:08:02;102762.84;;;19.72;51.65
73455;BME280;61690;51.824;6.306;2022-11-11T02:10:31;102758.16;;;19.56;51.98
73455;BME280;61690;51.824;6.306;2022-11-11T02:12:57;102753.75;;;19.79;51.43
73455;BME280;61690;51.824;6.306;2022-11-11T02:15:41;102763.44;;;19.78;51.31
73455;BME280;61690;51.824;6.306;2022-11-11T02:18:06;102758.59;;;19.68;51.70
73455;BME280;61690;51.824;6.306;2022-11-11T02:20:41;102759.63;;;19.64;51.95
73455;BME280;61690;51.824;6.306;2022-11-11T02:23:30;102763.28;;;19.59;51.87
73455;BME280;61690;51.824;6.306;2022-11-11T02:26:00;102759.63;;;19.64;51.75
73455;BME280;61690;51.824;6.306;2022-11-11T02:28:26;102774.44;;;19.68;51.67
73455;BME280;61690;51.824;6.306;2022-11-11T02:30:52;102771.16;;;19.61;52.03
73455;BME280;61690;51.824;6.306;2022-11-11T02:33:17;102759.75;;;19.61;51.75
73455;BME280;61690;51.824;6.306;2022-11-11T02:35:45;102757.91;;;19.63;51.88
73455;BME280;61690;51.824;6.306;2022-11-11T02:38:19;102754.00;;;19.73;51.55
73455;BME280;61690;51.824;6.306;2022-11-11T02:40:44;102759.56;;;19.65;51.62
73455;BME280;61690;51.824;6.306;2022-11-11T02:43:30;102766.56;;;19.66;51.77
73455;BME280;61690;51.824;6.306;2022-11-11T02:45:56;102757.56;;;19.72;51.16
73455;BME280;61690;51.824;6.306;2022-11-11T02:48:22;102766.72;;;19.62;51.61
73455;BME280;61690;51.824;6.306;2022-11-11T02:50:48;102755.25;;;19.63;51.70
73455;BME280;61690;51.824;6.306;2022-11-11T02:53:13;102750.09;;;19.59;52.04
73455;BME280;61690;51.824;6.306;2022-11-11T02:55:38;102743.38;;;19.52;52.05
73455;BME280;61690;51.824;6.306;2022-11-11T02:58:04;102743.22;;;19.55;51.71
73455;BME280;61690;51.824;6.306;2022-11-11T03:00:29;102733.41;;;19.59;51.62
73455;BME280;61690;51.824;6.306;2022-11-11T03:02:54;102738.03;;;19.76;51.23
73455;BME280;61690;51.824;6.306;2022-11-11T03:05:20;102745.69;;;19.60;51.51
73455;BME280;61690;51.824;6.306;2022-11-11T03:07:45;102750.28;;;19.55;51.64
73455;BME280;61690;51.824;6.306;2022-11-11T03:10:10;102755.25;;;19.63;51.56
73455;BME280;61690;51.824;6.306;2022-11-11T03:12:36;102764.91;;;19.64;51.64
73455;BME280;61690;51.824;6.306;2022-11-11T03:15:03;102756.31;;;19.58;51.85
73455;BME280;61690;51.824;6.306;2022-11-11T03:17:28;102759.63;;;19.64;51.58
73455;BME280;61690;51.824;6.306;2022-11-11T03:20:08;102766.16;;;19.77;51.24
73455;BME280;61690;51.824;6.306;2022-11-11T03:23:05;102769.47;;;19.60;51.45
73455;BME280;61690;51.824;6.306;2022-11-11T03:25:31;102772.00;;;19.62;51.48
73455;BME280;61690;51.824;6.306;2022-11-11T03:30:41;102775.94;;;19.51;51.68
73455;BME280;61690;51.824;6.306;2022-11-11T03:33:06;102771.31;;;19.80;51.19
73455;BME280;61690;51.824;6.306;2022-11-11T03:35:33;102778.78;;;19.69;51.47
73455;BME280;61690;51.824;6.306;2022-11-11T03:37:59;102775.47;;;19.64;51.57
73455;BME280;61690;51.824;6.306;2022-11-11T03:40:44;102779.63;;;19.47;52.13
73455;BME280;61690;51.824;6.306;2022-11-11T03:43:11;102784.59;;;19.55;51.77
73455;BME280;61690;51.824;6.306;2022-11-11T03:45:36;102771.31;;;19.58;51.69
73455;BME280;61690;51.824;6.306;2022-11-11T03:48:02;102774.09;;;19.53;51.65
73455;BME280;61690;51.824;6.306;2022-11-11T03:50:27;102760.00;;;19.54;51.42
73455;BME280;61690;51.824;6.306;2022-11-11T03:52:52;102753.34;;;19.44;52.16
73455;BME280;61690;51.824;6.306;2022-11-11T03:55:18;102756.69;;;19.49;52.01
73455;BME280;61690;51.824;6.306;2022-11-11T03:57:45;102750.72;;;19.66;51.46
73455;BME280;61690;51.824;6.306;2022-11-11T04:00:13;102750.09;;;19.59;51.32
73455;BME280;61690;51.824;6.306;2022-11-11T04:02:38;102756.47;;;19.54;51.37
73455;BME280;61690;51.824;6.306;2022-11-11T04:05:22;102763.84;;;19.46;52.08
73455;BME280;61690;51.824;6.306;2022-11-11T04:08:14;102756.31;;;19.58;51.48
73455;BME280;61690;51.824;6.306;2022-11-11T04:11:11;102761.09;;;19.71;51.04
73455;BME280;61690;51.824;6.306;2022-11-11T04:13:41;102746.13;;;19.71;51.15
73455;BME280;61690;51.824;6.306;2022-11-11T04:16:25;102755.22;;;19.64;51.35
73455;BME280;61690;51.824;6.306;2022-11-11T04:18:51;102749.44;;;19.54;51.52
73455;BME280;61690;51.824;6.306;2022-11-11T04:21:34;102756.16;;;19.62;51.05
73455;BME280;61690;51.824;6.306;2022-11-11T04:24:14;102754.22;;;19.67;51.14
73455;BME280;61690;51.824;6.306;2022-11-11T04:27:00;102762.06;;;19.46;51.75
73455;BME280;61690;51.824;6.306;2022-11-11T04:29:26;102760.66;;;19.59;51.28
73455;BME280;61690;51.824;6.306;2022-11-11T04:31:59;102763.19;;;19.63;51.07
73455;BME280;61690;51.824;6.306;2022-11-11T04:34:45;102767.72;;;19.59;51.24
73455;BME280;61690;51.824;6.306;2022-11-11T04:37:12;102766.88;;;19.58;51.39
73455;BME280;61690;51.824;6.306;2022-11-11T04:39:37;102761.94;;;19.49;51.74
73455;BME280;61690;51.824;6.306;2022-11-11T04:42:21;102777.13;;;19.66;51.12
73455;BME280;61690;51.824;6.306;2022-11-11T04:44:47;102772.63;;;19.46;51.60
73455;BME280;61690;51.824;6.306;2022-11-11T04:47:31;102773.94;;;19.58;51.38
73455;BME280;61690;51.824;6.306;2022-11-11T04:49:56;102771.22;;;19.59;50.96
73455;BME280;61690;51.824;6.306;2022-11-11T04:52:21;102768.09;;;19.50;51.39
73455;BME280;61690;51.824;6.306;2022-11-11T04:54:58;102774.09;;;19.53;51.41
73455;BME280;61690;51.824;6.306;2022-11-11T04:57:43;102768.88;;;19.75;50.59
73455;BME280;61690;51.824;6.306;2022-11-11T05:00:12;102777.84;;;19.48;51.23
73455;BME280;61690;51.824;6.306;2022-11-11T05:02:37;102784.91;;;19.47;51.56
73455;BME280;61690;51.824;6.306;2022-11-11T05:05:22;102777.78;;;19.49;51.25
73455;BME280;61690;51.824;6.306;2022-11-11T05:07:48;102776.44;;;19.39;51.62
73455;BME280;61690;51.824;6.306;2022-11-11T05:10:32;102768.81;;;19.53;51.51
73455;BME280;61690;51.824;6.306;2022-11-11T05:12:57;102775.47;;;19.64;50.96
73455;BME280;61690;51.824;6.306;2022-11-11T05:15:43;102778.03;;;19.43;51.64
73455;BME280;61690;51.824;6.306;2022-11-11T05:18:27;102784.28;;;19.40;51.71
73455;BME280;61690;51.824;6.306;2022-11-11T05:21:14;102790.75;;;19.55;51.29
73455;BME280;61690;51.824;6.306;2022-11-11T05:23:46;102783.19;;;17.98;52.09
73455;BME280;61690;51.824;6.306;2022-11-11T05:26:30;102781.69;;;18.43;52.68
73455;BME280;61690;51.824;6.306;2022-11-11T05:28:55;102778.13;;;18.69;52.01
73455;BME280;61690;51.824;6.306;2022-11-11T05:31:21;102782.75;;;18.88;51.53
73455;BME280;61690;51.824;6.306;2022-11-11T05:33:46;102772.63;;;19.68;50.33
73455;BME280;61690;51.824;6.306;2022-11-11T05:36:11;102773.16;;;19.78;50.68
73455;BME280;61690;51.824;6.306;2022-11-11T05:38:37;102774.63;;;20.06;50.10
73455;BME280;61690;51.824;6.306;2022-11-11T05:41:02;102775.84;;;20.40;49.22
73455;BME280;61690;51.824;6.306;2022-11-11T05:43:27;102782.22;;;20.56;49.11
73455;BME280;61690;51.824;6.306;2022-11-11T05:45:52;102783.41;;;20.69;48.86
73455;BME280;61690;51.824;6.306;2022-11-11T05:48:18;102787.75;;;20.70;49.17
73455;BME280;61690;51.824;6.306;2022-11-11T05:50:43;102795.78;;;20.88;49.08
73455;BME280;61690;51.824;6.306;2022-11-11T05:53:08;102798.03;;;20.97;48.94
73455;BME280;61690;51.824;6.306;2022-11-11T05:55:34;102787.81;;;21.08;48.76
73455;BME280;61690;51.824;6.306;2022-11-11T05:57:59;102783.25;;;21.12;48.81
73455;BME280;61690;51.824;6.306;2022-11-11T06:00:24;102787.34;;;21.19;48.78
73455;BME280;61690;51.824;6.306;2022-11-11T06:02:50;102784.69;;;21.19;49.09
73455;BME280;61690;51.824;6.306;2022-11-11T06:05:15;102789.69;;;21.25;48.97
73455;BME280;61690;51.824;6.306;2022-11-11T06:07:40;102787.47;;;21.16;49.49
73455;BME280;61690;51.824;6.306;2022-11-11T06:10:06;102791.28;;;21.48;49.18
73455;BME280;61690;51.824;6.306;2022-11-11T06:13:01;102793.50;;;21.58;49.08
73455;BME280;61690;51.824;6.306;2022-11-11T06:15:27;102796.75;;;21.63;48.98
73455;BME280;61690;51.824;6.306;2022-11-11T06:17:52;102789.88;;;21.59;49.23
73455;BME280;61690;51.824;6.306;2022-11-11T06:20:18;102786.44;;;21.76;49.30
73455;BME280;61690;51.824;6.306;2022-11-11T06:22:43;102792.69;;;21.92;49.03
73455;BME280;61690;51.824;6.306;2022-11-11T06:25:21;102788.47;;;21.88;48.90
73455;BME280;61690;51.824;6.306;2022-11-11T06:28:05;102788.22;;;21.75;49.42
73455;BME280;61690;51.824;6.306;2022-11-11T06:30:31;102796.72;;;21.82;49.46
73455;BME280;61690;51.824;6.306;2022-11-11T06:32:56;102806.94;;;22.07;49.35
73455;BME280;61690;51.824;6.306;2022-11-11T06:35:21;102806.09;;;22.06;49.06
73455;BME280;61690;51.824;6.306;2022-11-11T06:37:47;102810.88;;;22.00;49.52
73455;BME280;61690;51.824;6.306;2022-11-11T06:40:12;102812.44;;;22.21;49.37
73455;BME280;61690;51.824;6.306;2022-11-11T06:42:37;102818.50;;;22.23;49.40
73455;BME280;61690;51.824;6.306;2022-11-11T06:45:03;102814.03;;;22.25;49.30
73455;BME280;61690;51.824;6.306;2022-11-11T06:47:28;102822.75;;;22.45;48.77
73455;BME280;61690;51.824;6.306;2022-11-11T06:49:53;102814.78;;;22.45;49.38
73455;BME280;61690;51.824;6.306;2022-11-11T06:52:18;102825.78;;;22.37;49.82
73455;BME280;61690;51.824;6.306;2022-11-11T06:54:44;102835.69;;;22.34;49.72
73455;BME280;61690;51.824;6.306;2022-11-11T06:57:09;102824.66;;;22.24;49.92
73455;BME280;61690;51.824;6.306;2022-11-11T06:59:34;102830.09;;;22.03;50.30
73455;BME280;61690;51.824;6.306;2022-11-11T07:02:00;102829.38;;;21.82;50.38
73455;BME280;61690;51.824;6.306;2022-11-11T07:04:25;102841.78;;;21.63;50.49
73455;BME280;61690;51.824;6.306;2022-11-11T07:06:50;102841.72;;;21.45;51.26
73455;BME280;61690;51.824;6.306;2022-11-11T07:09:15;102831.66;;;21.53;51.18
73455;BME280;61690;51.824;6.306;2022-11-11T07:11:41;102835.50;;;21.46;51.67
73455;BME280;61690;51.824;6.306;2022-11-11T07:14:06;102837.47;;;21.79;51.15
73455;BME280;61690;51.824;6.306;2022-11-11T07:16:31;102844.34;;;21.64;51.64
73455;BME280;61690;51.824;6.306;2022-11-11T07:18:57;102843.03;;;21.56;51.58
73455;BME280;61690;51.824;6.306;2022-11-11T07:21:22;102841.25;;;21.35;52.08
73455;BME280;61690;51.824;6.306;2022-11-11T07:23:47;102846.13;;;21.26;52.23
73455;BME280;61690;51.824;6.306;2022-11-11T07:26:13;102848.91;;;21.23;52.41
73455;BME280;61690;51.824;6.306;2022-11-11T07:28:38;102857.06;;;21.18;52.74
73455;BME280;61690;51.824;6.306;2022-11-11T07:31:03;102858.53;;;21.05;53.00
73455;BME280;61690;51.824;6.306;2022-11-11T07:33:28;102853.13;;;21.08;53.04
73455;BME280;61690;51.824;6.306;2022-11-11T07:35:54;102859.38;;;21.05;53.45
73455;BME280;61690;51.824;6.306;2022-11-11T07:38:19;102873.69;;;21.01;53.20
73455;BME280;61690;51.824;6.306;2022-11-11T07:40:44;102872.03;;;20.99;53.15
73455;BME280;61690;51.824;6.306;2022-11-11T07:43:10;102868.63;;;20.97;53.24
73455;BME280;61690;51.824;6.306;2022-11-11T07:45:35;102870.41;;;20.96;53.41
73455;BME280;61690;51.824;6.306;2022-11-11T07:48:00;102884.28;;;21.01;53.52
73455;BME280;61690;51.824;6.306;2022-11-11T07:50:25;102877.28;;;21.00;53.67
73455;BME280;61690;51.824;6.306;2022-11-11T07:52:51;102881.00;;;20.96;53.73
73455;BME280;61690;51.824;6.306;2022-11-11T07:55:16;102879.91;;;21.00;53.66
73455;BME280;61690;51.824;6.306;2022-11-11T07:57:41;102893.16;;;21.00;53.52
73455;BME280;61690;51.824;6.306;2022-11-11T08:00:07;102893.28;;;20.97;53.91
73455;BME280;61690;51.824;6.306;2022-11-11T08:02:33;102891.91;;;20.88;54.32
73455;BME280;61690;51.824;6.306;2022-11-11T08:04:58;102894.63;;;20.87;53.85
73455;BME280;61690;51.824;6.306;2022-11-11T08:07:23;102897.84;;;20.93;53.92
73455;BME280;61690;51.824;6.306;2022-11-11T08:09:49;102893.16;;;21.00;53.93
73455;BME280;61690;51.824;6.306;2022-11-11T08:12:14;102894.06;;;20.79;54.69
73455;BME280;61690;51.824;6.306;2022-11-11T08:14:58;102896.72;;;20.79;54.60
73455;BME280;61690;51.824;6.306;2022-11-11T08:17:23;102907.06;;;20.85;54.37
73455;BME280;61690;51.824;6.306;2022-11-11T08:19:48;102895.53;;;20.86;54.49
73455;BME280;61690;51.824;6.306;2022-11-11T08:22:14;102893.03;;;20.83;54.44
73455;BME280;61690;51.824;6.306;2022-11-11T08:24:39;102901.53;;;20.69;54.78
73455;BME280;61690;51.824;6.306;2022-11-11T08:27:04;102901.34;;;20.51;52.38
73455;BME280;61690;51.824;6.306;2022-11-11T08:29:30;102906.31;;;20.59;54.04
73455;BME280;61690;51.824;6.306;2022-11-11T08:31:55;102912.41;;;21.23;52.84
73455;BME280;61690;51.824;6.306;2022-11-11T08:34:21;102901.06;;;21.40;52.59
73455;BME280;61690;51.824;6.306;2022-11-11T08:36:47;102900.03;;;21.44;52.36
73455;BME280;61690;51.824;6.306;2022-11-11T08:39:12;102902.97;;;21.57;52.12
73455;BME280;61690;51.824;6.306;2022-11-11T08:41:37;102913.28;;;21.63;52.29
73455;BME280;61690;51.824;6.306;2022-11-11T08:44:03;102907.00;;;21.65;51.95
73455;BME280;61690;51.824;6.306;2022-11-11T08:46:29;102918.16;;;21.72;51.97
73455;BME280;61690;51.824;6.306;2022-11-11T08:48:55;102909.00;;;21.79;51.90
73455;BME280;61690;51.824;6.306;2022-11-11T08:51:20;102910.44;;;21.86;51.64
73455;BME280;61690;51.824;6.306;2022-11-11T08:53:45;102912.97;;;21.88;51.45
73455;BME280;61690;51.824;6.306;2022-11-11T08:56:10;102917.13;;;21.93;51.37
73455;BME280;61690;51.824;6.306;2022-11-11T08:58:36;102922.19;;;22.17;51.27
73455;BME280;61690;51.824;6.306;2022-11-11T09:01:02;102920.78;;;22.29;51.16
73455;BME280;61690;51.824;6.306;2022-11-11T09:03:28;102923.03;;;22.37;50.79
73455;BME280;61690;51.824;6.306;2022-11-11T09:05:54;102938.88;;;22.19;51.38
73455;BME280;61690;51.824;6.306;2022-11-11T09:08:20;102941.19;;;22.08;51.66
73455;BME280;61690;51.824;6.306;2022-11-11T09:10:45;102928.75;;;21.91;51.79
73455;BME280;61690;51.824;6.306;2022-11-11T09:13:11;102935.34;;;21.82;52.30
73455;BME280;61690;51.824;6.306;2022-11-11T09:15:36;102940.78;;;21.79;52.55
73455;BME280;61690;51.824;6.306;2022-11-11T09:18:02;102945.13;;;21.80;52.35
73455;BME280;61690;51.824;6.306;2022-11-11T09:20:28;102941.41;;;21.05;50.06
73455;BME280;61690;51.824;6.306;2022-11-11T09:22:53;102943.88;;;20.89;50.92
73455;BME280;61690;51.824;6.306;2022-11-11T09:25:20;102938.81;;;21.24;51.61
73455;BME280;61690;51.824;6.306;2022-11-11T09:27:57;102943.72;;;21.33;52.09
73455;BME280;61690;51.824;6.306;2022-11-11T09:30:24;102944.56;;;21.34;51.89
73455;BME280;61690;51.824;6.306;2022-11-11T09:32:50;102950.59;;;21.38;51.93
73455;BME280;61690;51.824;6.306;2022-11-11T09:35:15;102945.63;;;21.30;52.44
73455;BME280;61690;51.824;6.306;2022-11-11T09:37:40;102946.41;;;21.32;52.50
73455;BME280;61690;51.824;6.306;2022-11-11T09:40:08;102940.69;;;21.22;52.71
73455;BME280;61690;51.824;6.306;2022-11-11T09:42:39;102947.81;;;21.20;52.68
73455;BME280;61690;51.824;6.306;2022-11-11T09:45:18;102947.88;;;21.19;52.90
73455;BME280;61690;51.824;6.306;2022-11-11T09:50:36;102950.31;;;20.40;51.40
73455;BME280;61690;51.824;6.306;2022-11-11T09:53:20;102959.28;;;20.35;52.14
73455;BME280;61690;51.824;6.306;2022-11-11T09:55:51;102950.47;;;20.36;52.01
73455;BME280;61690;51.824;6.306;2022-11-11T09:58:22;102957.47;;;20.60;51.49
73455;BME280;61690;51.824;6.306;2022-11-11T10:00:56;102944.03;;;20.42;51.68
73455;BME280;61690;51.824;6.306;2022-11-11T10:03:24;102943.25;;;20.62;51.70
73455;BME280;61690;51.824;6.306;2022-11-11T10:05:53;102945.16;;;20.81;51.87
73455;BME280;61690;51.824;6.306;2022-11-11T10:08:33;102947.91;;;20.98;51.26
73455;BME280;61690;51.824;6.306;2022-11-11T10:11:00;102946.97;;;21.20;50.92
73455;BME280;61690;51.824;6.306;2022-11-11T10:13:29;102950.06;;;21.29;50.99
73455;BME280;61690;51.824;6.306;2022-11-11T10:15:57;102954.53;;;21.08;51.73
73455;BME280;61690;51.824;6.306;2022-11-11T10:18:33;102955.66;;;21.03;51.58
73455;BME280;61690;51.824;6.306;2022-11-11T10:21:02;102961.31;;;20.93;52.14
73455;BME280;61690;51.824;6.306;2022-11-11T10:23:34;102956.66;;;21.00;52.29
73455;BME280;61690;51.824;6.306;2022-11-11T10:26:07;102949.22;;;21.08;52.18
73455;BME280;61690;51.824;6.306;2022-11-11T10:28:36;102952.34;;;21.18;51.93
73455;BME280;61690;51.824;6.306;2022-11-11T10:31:04;102951.94;;;21.07;52.05
73455;BME280;61690;51.824;6.306;2022-11-11T10:33:45;102947.72;;;21.03;52.33
73455;BME280;61690;51.824;6.306;2022-11-11T10:36:16;102960.34;;;20.96;52.45
73455;BME280;61690;51.824;6.306;2022-11-11T10:38:58;102957.84;;;20.93;52.76
73455;BME280;61690;51.824;6.306;2022-11-11T10:41:42;102956.16;;;21.31;52.17
73455;BME280;61690;51.824;6.306;2022-11-11T10:46:55;102965.00;;;21.30;52.23
73455;BME280;61690;51.824;6.306;2022-11-11T10:49:25;102968.81;;;21.25;52.32
73455;BME280;61690;51.824;6.306;2022-11-11T10:51:58;102970.41;;;21.08;52.57
73455;BME280;61690;51.824;6.306;2022-11-11T10:55:15;102968.34;;;20.94;52.99
73455;BME280;61690;51.824;6.306;2022-11-11T10:57:30;102962.59;;;20.85;52.97
73455;BME280;61690;51.824;6.306;2022-11-11T11:00:05;102967.50;;;20.50;51.69
73455;BME280;61690;51.824;6.306;2022-11-11T11:05:41;102957.16;;;20.23;52.25
73455;BME280;61690;51.824;6.306;2022-11-11T11:08:15;102964.25;;;20.21;52.43
73455;BME280;61690;51.824;6.306;2022-11-11T11:10:46;102961.69;;;20.20;52.32
73455;BME280;61690;51.824;6.306;2022-11-11T11:13:17;102960.16;;;20.14;52.35
73455;BME280;61690;51.824;6.306;2022-11-11T11:15:51;102957.56;;;20.12;52.26
73455;BME280;61690;51.824;6.306;2022-11-11T11:18:18;102948.84;;;20.10;52.78
73455;BME280;61690;51.824;6.306;2022-11-11T11:21:03;102953.81;;;20.18;52.27
73455;BME280;61690;51.824;6.306;2022-11-11T11:23:39;102946.25;;;20.09;52.45
73455;BME280;61690;51.824;6.306;2022-11-11T11:26:08;102952.34;;;20.11;52.59
73455;BME280;61690;51.824;6.306;2022-11-11T11:28:34;102944.97;;;20.19;52.10
73455;BME280;61690;51.824;6.306;2022-11-11T11:31:06;102947.69;;;20.17;52.32
73455;BME280;61690;51.824;6.306;2022-11-11T11:33:50;102939.00;;;20.14;52.38
73455;BME280;61690;51.824;6.306;2022-11-11T11:36:16;102935.75;;;20.29;52.21
73455;BME280;61690;51.824;6.306;2022-11-11T11:38:47;102940.00;;;20.33;52.46
73455;BME280;61690;51.824;6.306;2022-11-11T11:41:17;102943.53;;;20.32;52.35
73455;BME280;61690;51.824;6.306;2022-11-11T11:43:43;102941.69;;;20.34;52.32
73455;BME280;61690;51.824;6.306;2022-11-11T11:46:29;102941.84;;;20.31;52.12
73455;BME280;61690;51.824;6.306;2022-11-11T11:57:16;102937.34;;;20.33;52.33
73455;BME280;61690;51.824;6.306;2022-11-11T12:00:05;102946.28;;;20.31;52.52
73455;BME280;61690;51.824;6.306;2022-11-11T12:05:38;102943.63;;;20.31;52.55
73455;BME280;61690;51.824;6.306;2022-11-11T12:08:21;102937.41;;;20.32;52.28
73455;BME280;61690;51.824;6.306;2022-11-11T12:16:18;102936.41;;;20.34;51.91
73455;BME280;61690;51.824;6.306;2022-11-11T12:19:00;102930.41;;;20.31;52.43
73455;BME280;61690;51.824;6.306;2022-11-11T12:24:32;102917.31;;;20.28;52.29
73455;BME280;61690;51.824;6.306;2022-11-11T12:27:12;102920.16;;;20.23;53.01
73455;BME280;61690;51.824;6.306;2022-11-11T12:30:04;102910.88;;;20.35;52.93
73455;BME280;61690;51.824;6.306;2022-11-11T12:35:43;102897.59;;;20.36;53.22
73455;BME280;61690;51.824;6.306;2022-11-11T12:48:53;102887.53;;;20.67;53.24
73455;BME280;61690;51.824;6.306;2022-11-11T12:51:31;102889.59;;;20.59;53.53
73455;BME280;61690;51.824;6.306;2022-11-11T12:59:22;102884.28;;;20.60;53.15
73455;BME280;61690;51.824;6.306;2022-11-11T13:07:28;102883.47;;;20.58;53.79
73455;BME280;61690;51.824;6.306;2022-11-11T13:10:11;102882.50;;;20.81;53.36
73455;BME280;61690;51.824;6.306;2022-11-11T13:12:44;102882.22;;;20.67;54.09
73455;BME280;61690;51.824;6.306;2022-11-11T13:15:16;102886.00;;;20.61;54.28
73455;BME280;61690;51.824;6.306;2022-11-11T13:17:42;102890.00;;;20.71;54.31
73455;BME280;61690;51.824;6.306;2022-11-11T13:23:00;102880.66;;;20.63;54.57
73455;BME280;61690;51.824;6.306;2022-11-11T13:25:29;102889.59;;;20.59;54.97
73455;BME280;61690;51.824;6.306;2022-11-11T13:28:05;102888.09;;;20.53;54.87
73455;BME280;61690;51.824;6.306;2022-11-11T13:33:18;102888.63;;;20.61;54.99
73455;BME280;61690;51.824;6.306;2022-11-11T13:35:46;102884.81;;;20.89;54.77
73455;BME280;61690;51.824;6.306;2022-11-11T13:38:28;102886.34;;;20.94;54.44
73455;BME280;61690;51.824;6.306;2022-11-11T13:40:57;102883.38;;;20.82;54.94
73455;BME280;61690;51.824;6.306;2022-11-11T13:43:33;102891.84;;;20.69;55.36
73455;BME280;61690;51.824;6.306;2022-11-11T13:46:02;102893.66;;;21.08;54.64
73455;BME280;61690;51.824;6.306;2022-11-11T13:48:35;102890.44;;;21.21;54.48
73455;BME280;61690;51.824;6.306;2022-11-11T13:51:11;102894.53;;;21.48;53.51
73455;BME280;61690;51.824;6.306;2022-11-11T13:53:39;102886.41;;;20.93;54.86
73455;BME280;61690;51.824;6.306;2022-11-11T13:56:05;102889.72;;;20.98;55.28
73455;BME280;61690;51.824;6.306;2022-11-11T13:58:35;102888.16;;;21.13;54.99
73455;BME280;61690;51.824;6.306;2022-11-11T14:01:05;102889.44;;;21.04;55.01
73455;BME280;61690;51.824;6.306;2022-11-11T14:13:50;102893.94;;;21.02;55.83
73455;BME280;61690;51.824;6.306;2022-11-11T14:24:30;102897.34;;;21.25;54.89
73455;BME280;61690;51.824;6.306;2022-11-11T14:27:00;102893.66;;;20.88;56.29
73455;BME280;61690;51.824;6.306;2022-11-11T14:29:30;102896.84;;;20.75;56.81
73455;BME280;61690;51.824;6.306;2022-11-11T14:32:06;102900.50;;;20.73;57.05